createdAt,value
2023-05-16T00:08:12.620Z,69.6
2023-05-16T00:28:12.571Z,71.4
2023-05-16T00:48:12.543Z,73.9
2023-05-16T01:08:12.524Z,74.6
2023-05-16T01:28:12.512Z,76.0
2023-05-16T01:48:12.504Z,75.8
2023-05-16T02:08:12.474Z,77.3
2023-05-16T02:28:12.452Z,77.1
2023-05-16T02:48:12.433Z,78.2
2023-05-16T03:08:12.417Z,79.1
2023-05-16T03:28:12.378Z,79.1
2023-05-16T03:48:12.372Z,79.5
2023-05-16T04:08:12.338Z,79.0
2023-05-16T04:48:12.336Z,78.8
2023-05-16T05:08:12.316Z,78.7
2023-05-16T05:28:12.253Z,78.7
2023-05-16T05:48:12.250Z,78.3
2023-05-16T06:08:12.230Z,78.0
2023-05-16T06:28:12.210Z,77.1
2023-05-16T06:48:12.185Z,75.9
2023-05-16T07:08:12.149Z,75.6
2023-05-16T07:28:12.156Z,74.2
2023-05-16T07:48:12.268Z,73.8
2023-05-16T08:08:12.119Z,75.3
2023-05-16T08:28:12.144Z,71.4
2023-05-16T08:48:12.133Z,69.6
2023-05-16T09:08:12.097Z,70.2
2023-05-16T09:28:12.079Z,69.9
2023-05-16T09:48:12.039Z,72.8
2023-05-16T10:08:11.982Z,69.9
2023-05-16T10:48:11.951Z,70.3
2023-05-16T11:08:12.008Z,69.0
2023-05-16T11:28:12.083Z,67.6
2023-05-16T11:48:12.339Z,67.5
2023-05-16T12:08:11.878Z,67.4
2023-05-16T12:28:11.856Z,66.6
2023-05-16T12:48:11.844Z,62.7
2023-05-16T13:08:11.812Z,62.0
2023-05-16T13:28:11.766Z,59.1
2023-05-16T13:48:11.743Z,56.9
2023-05-16T14:08:11.720Z,51.3
2023-05-16T14:28:11.727Z,51.6
2023-05-16T14:48:11.719Z,50.0
2023-05-16T15:08:11.729Z,45.5
2023-05-16T15:48:11.681Z,41.8
2023-05-16T16:08:11.616Z,42.3
2023-05-16T16:28:11.580Z,43.1
2023-05-16T16:48:11.776Z,41.7
2023-05-16T17:28:11.518Z,43.6
2023-05-16T17:48:11.482Z,41.9
2023-05-16T18:08:11.563Z,40.6
2023-05-16T18:28:11.464Z,41.6
2023-05-16T18:48:11.415Z,44.8
2023-05-16T19:08:11.428Z,46.3
2023-05-16T19:28:11.397Z,46.9
2023-05-16T19:48:11.470Z,49.1
2023-05-16T20:08:11.415Z,49.8
2023-05-16T20:28:11.336Z,51.3
2023-05-16T20:48:11.371Z,51.8
2023-05-16T21:08:11.341Z,52.5
2023-05-16T21:28:11.384Z,53.9
2023-05-16T21:48:11.302Z,55.0
2023-05-16T22:08:11.288Z,56.8
2023-05-16T22:28:11.241Z,58.7
2023-05-16T22:48:11.191Z,58.7
2023-05-16T23:08:11.211Z,60.5
2023-05-16T23:28:11.152Z,60.3
2023-05-16T23:48:11.118Z,61.1
